Time;durP1;ratioP1;P1;durP2;ratioP2;P2;SDS_P1;SDS_P2;PMS_P1;PMS_P2;Temp;Humidity;BMP_temperature;BMP_pressure;BME280_temperature;BME280_humidity;BME280_pressure;Samples;Min_cycle;Max_cycle;Signal;HPM_P1;HPM_P2
2022/11/03 00:01:38;;;;;;;3.75;1.40;;;;;;;19.05;57.95;101253.13;5054539;28;20054;-46
2022/11/03 00:04:05;;;;;;;2.05;0.95;;;;;;;19.06;57.74;101256.59;5046562;28;20024;-46
2022/11/03 00:06:30;;;;;;;3.25;1.63;;;;;;;19.06;57.54;101251.34;5049913;28;20028;-46
2022/11/03 00:09:01;;;;;;;3.60;1.42;;;;;;;19.05;57.62;101261.03;5045266;28;20822;-46
2022/11/03 00:11:27;;;;;;;5.25;1.42;;;;;;;19.06;57.59;101260.09;5041848;28;20148;-45
2022/11/03 00:13:53;;;;;;;5.40;1.40;;;;;;;19.06;57.78;101264.50;5051613;28;20942;-46
2022/11/03 00:16:19;;;;;;;5.13;1.55;;;;;;;19.03;57.91;101254.97;5043265;28;20029;-46
2022/11/03 00:18:45;;;;;;;6.50;1.83;;;;;;;19.06;57.57;101260.09;5050908;28;20032;-46
2022/11/03 00:21:12;;;;;;;6.00;1.60;;;;;;;19.06;57.85;101248.72;5045833;28;20041;-46
2022/11/03 00:23:40;;;;;;;4.32;1.45;;;;;;;19.05;57.40;101244.34;5046036;28;20033;-45
2022/11/03 00:26:22;;;;;;;6.90;1.58;;;;;;;19.05;57.30;101247.84;5048153;28;20037;-46
2022/11/03 00:28:49;;;;;;;2.13;1.08;;;;;;;19.03;58.00;101244.44;5051454;28;20040;-46
2022/11/03 00:31:18;;;;;;;4.63;1.40;;;;;;;19.04;57.42;101234.78;5049756;28;20039;-47
2022/11/03 00:33:44;;;;;;;3.35;1.30;;;;;;;19.04;57.49;101229.50;5050434;28;20509;-46
2022/11/03 00:36:12;;;;;;;5.80;1.52;;;;;;;19.03;57.52;101233.91;5051082;28;20036;-46
2022/11/03 00:38:38;;;;;;;3.88;1.30;;;;;;;19.02;57.70;101236.59;5047711;28;20133;-45
2022/11/03 00:41:05;;;;;;;6.82;1.35;;;;;;;19.01;57.79;101230.50;5053009;28;20102;-45
2022/11/03 00:43:32;;;;;;;6.75;1.63;;;;;;;19.00;57.69;101222.69;5047315;28;20040;-45
2022/11/03 00:45:58;;;;;;;3.85;1.33;;;;;;;19.03;57.61;101231.28;5052061;28;20127;-46
2022/11/03 00:48:29;;;;;;;7.40;1.63;;;;;;;19.04;57.29;101229.50;5046498;28;20043;-45
2022/11/03 00:51:04;;;;;;;3.17;1.50;;;;;;;19.03;57.47;101220.75;5051153;28;20036;-45
2022/11/03 00:53:30;;;;;;;;;;;;;;;19.02;57.68;101218.19;5051514;28;20047;-45
2022/11/03 00:55:55;;;;;;;3.67;1.60;;;;;;;19.00;57.87;101220.03;5045711;28;19920;-50
2022/11/03 00:58:21;;;;;;;4.90;1.27;;;;;;;19.00;57.25;101206.88;5044513;28;20099;-45
2022/11/03 01:00:46;;;;;;;3.63;1.40;;;;;;;19.00;57.38;101205.09;5048921;28;20684;-46
2022/11/03 01:03:12;;;;;;;6.82;1.52;;;;;;;18.99;57.48;101197.25;5047935;28;20049;-45
2022/11/03 01:08:32;;;;;;;4.18;1.40;;;;;;;18.99;57.57;101202.53;5048477;28;20056;-47
2022/11/03 01:13:51;;;;;;;4.70;1.60;;;;;;;19.00;57.40;101191.06;5043947;28;20135;-47
2022/11/03 01:16:16;;;;;;;8.32;1.65;;;;;;;18.98;57.66;101187.69;5050945;28;20511;-45
2022/11/03 01:18:42;;;;;;;3.78;1.45;;;;;;;19.00;57.59;101185.81;5041853;28;20749;-46
2022/11/03 01:21:07;;;;;;;2.90;1.40;;;;;;;18.99;57.43;101184.97;5045918;28;20040;-47
2022/11/03 01:23:36;;;;;;;4.22;1.60;;;;;;;18.97;57.85;101184.19;5052586;28;20179;-45
2022/11/03 01:26:08;;;;;;;3.13;1.15;;;;;;;18.98;57.63;101179.78;5045500;28;20040;-45
2022/11/03 01:28:35;;;;;;;2.88;1.33;;;;;;;18.99;57.49;101169.16;5042820;28;20509;-46
2022/11/03 01:31:04;;;;;;;7.97;2.03;;;;;;;18.99;57.51;101168.31;5047241;28;20143;-46
2022/11/03 01:33:30;;;;;;;6.72;1.58;;;;;;;18.97;57.70;101175.44;5049480;28;20599;-46
2022/11/03 01:35:55;;;;;;;2.75;1.33;;;;;;;18.95;57.73;101178.16;5046493;28;20036;-45
2022/11/03 01:38:21;;;;;;;5.00;1.30;;;;;;;18.96;57.34;101168.44;5047346;28;20782;-45
2022/11/03 01:40:46;;;;;;;3.35;1.50;;;;;;;18.96;57.48;101163.19;5042446;28;20044;-47
2022/11/03 01:43:21;;;;;;;5.13;1.50;;;;;;;18.97;57.75;101164.91;5045789;28;20083;-45
2022/11/03 01:45:48;;;;;;;;;;;;;;;18.94;57.56;101149.25;5051876;28;20469;-46
2022/11/03 01:48:15;;;;;;;5.80;1.60;;;;;;;18.96;57.76;101147.38;5049605;28;19924;-46
2022/11/03 01:50:44;;;;;;;3.45;1.20;;;;;;;18.95;57.53;101143.06;5044312;28;20033;-45
2022/11/03 01:53:11;;;;;;;2.72;1.10;;;;;;;18.96;57.37;101139.50;5044014;28;20043;-46
2022/11/03 01:55:40;;;;;;;4.65;1.92;;;;;;;18.96;57.40;101140.34;5043576;28;20569;-45
2022/11/03 01:58:07;;;;;;;4.10;1.30;;;;;;;18.96;57.45;101131.59;5042557;28;20029;-47
2022/11/03 02:00:33;;;;;;;3.65;1.60;;;;;;;18.94;57.35;101128.19;5035580;28;20033;-45
2022/11/03 02:02:59;;;;;;;3.22;1.50;;;;;;;18.95;57.50;101132.53;5046677;28;20029;-47
2022/11/03 02:05:26;;;;;;;5.95;1.52;;;;;;;18.95;57.55;101122.88;5042166;28;20033;-46
2022/11/03 02:07:59;;;;;;;2.95;1.27;;;;;;;18.96;57.38;101113.16;5046773;28;20083;-46
2022/11/03 02:10:24;;;;;;;6.03;1.50;;;;;;;18.95;57.27;101116.75;5039777;28;20037;-46
2022/11/03 02:12:50;;;;;;;5.28;1.60;;;;;;;18.94;57.68;101113.25;5047293;28;20382;-46
2022/11/03 02:15:20;;;;;;;4.90;1.80;;;;;;;18.94;57.55;101105.34;5047099;28;20040;-46
2022/11/03 02:17:48;;;;;;;4.35;1.45;;;;;;;18.93;57.64;101103.66;5040792;28;20032;-45
2022/11/03 02:20:19;;;;;;;4.35;1.30;;;;;;;18.93;57.47;101093.13;5045575;28;20067;-45
2022/11/03 02:22:57;;;;;;;5.03;1.88;;;;;;;18.93;57.49;101089.63;5046079;28;20668;-46
2022/11/03 02:25:56;;;;;;;4.43;1.60;;;;;;;18.95;57.24;101085.16;5045433;28;20067;-46
2022/11/03 02:28:25;;;;;;;3.92;1.48;;;;;;;18.94;56.93;101083.44;5049386;28;20152;-41
2022/11/03 02:31:19;;;;;;;3.22;1.77;;;;;;;18.92;57.27;101078.28;5044606;28;20055;-40
2022/11/03 02:34:17;;;;;;;5.40;1.30;;;;;;;18.91;57.44;101076.56;5045617;28;20612;-40
2022/11/03 02:36:52;;;;;;;6.15;1.70;;;;;;;18.91;57.12;101071.28;5035389;28;20398;-40
2022/11/03 02:39:22;;;;;;;4.18;1.30;;;;;;;18.92;57.25;101072.16;5044244;28;20032;-41
2022/11/03 02:41:51;;;;;;;4.22;1.55;;;;;;;18.92;57.28;101061.63;5053113;28;20120;-40
2022/11/03 02:44:18;;;;;;;4.43;1.80;;;;;;;18.91;57.28;101058.13;5045102;28;20087;-40
2022/11/03 02:46:47;;;;;;;5.45;1.60;;;;;;;18.90;57.34;101053.78;5050443;28;20048;-40
2022/11/03 02:49:13;;;;;;;3.85;1.60;;;;;;;18.92;56.91;101043.19;5052904;28;20519;-46
2022/11/03 02:51:39;;;;;;;6.35;1.60;;;;;;;18.91;57.07;101038.84;5050537;28;20021;-46
2022/11/03 02:54:25;;;;;;;5.10;1.77;;;;;;;18.92;56.77;101035.28;5048786;28;20496;-46
2022/11/03 02:57:00;;;;;;;4.30;1.70;;;;;;;18.91;57.14;101036.22;5047501;28;20041;-47
2022/11/03 02:59:34;;;;;;;5.05;1.90;;;;;;;18.92;57.51;101043.19;5049498;28;20044;-46
2022/11/03 03:02:07;;;;;;;3.45;1.67;;;;;;;18.91;57.02;101036.22;5056626;28;20601;-46
2022/11/03 03:04:56;;;;;;;6.53;1.80;;;;;;;18.91;57.08;101036.22;5049723;28;20049;-46
2022/11/03 03:07:33;;;;;;;2.85;1.48;;;;;;;18.90;57.09;101032.72;5052677;28;20200;-50
2022/11/03 03:10:03;;;;;;;4.18;1.50;;;;;;;18.90;57.37;101029.22;5046084;28;20033;-46
2022/11/03 03:12:32;;;;;;;5.32;1.40;;;;;;;18.88;57.32;101026.69;5050027;28;20091;-45
2022/11/03 03:15:00;;;;;;;4.68;1.50;;;;;;;18.89;57.18;101022.28;5053913;28;20043;-46
2022/11/03 03:17:38;;;;;;;6.35;1.60;;;;;;;18.89;57.24;101017.88;5051969;28;20360;-46
2022/11/03 03:20:27;;;;;;;4.15;1.40;;;;;;;18.88;57.18;101003.00;5054275;28;20116;-47
2022/11/03 03:23:01;;;;;;;4.40;1.85;;;;;;;18.88;57.40;101005.63;5053895;28;20144;-47
2022/11/03 03:25:42;;;;;;;3.80;1.83;;;;;;;18.86;57.47;100999.59;5056034;28;20750;-46
2022/11/03 03:28:17;;;;;;;5.32;1.50;;;;;;;18.87;57.33;100990.75;5054461;28;20705;-45
2022/11/03 03:30:45;;;;;;;7.07;1.80;;;;;;;18.87;57.40;100987.31;5053544;28;20047;-46
2022/11/03 03:33:12;;;;;;;3.65;1.75;;;;;;;18.89;57.23;100993.31;5053379;28;20036;-46
2022/11/03 03:35:41;;;;;;;5.13;1.80;;;;;;;18.88;56.87;100989.84;5051605;28;20028;-46
2022/11/03 03:38:12;;;;;;;6.45;1.80;;;;;;;18.86;57.08;100982.97;5053746;28;20052;-47
2022/11/03 03:40:41;;;;;;;4.75;1.70;;;;;;;18.87;57.12;100984.66;5056334;28;20028;-45
2022/11/03 03:43:11;;;;;;;9.52;2.22;;;;;;;18.88;57.11;100981.09;5052077;28;20086;-46
2022/11/03 03:45:37;;;;;;;7.50;2.33;;;;;;;18.88;56.60;100981.94;5050494;28;20025;-46
2022/11/03 03:48:05;;;;;;;5.15;1.45;;;;;;;18.88;56.88;100983.72;5057382;28;20045;-48
2022/11/03 03:50:37;;;;;;;5.85;1.73;;;;;;;18.86;57.26;100983.81;5048867;28;20044;-48
2022/11/03 03:53:05;;;;;;;4.00;1.77;;;;;;;18.86;57.08;100982.97;5051429;28;20040;-45
2022/11/03 03:55:42;;;;;;;4.80;1.48;;;;;;;18.85;57.17;100984.72;5052461;28;20078;-45
2022/11/03 03:58:11;;;;;;;5.25;1.50;;;;;;;18.86;57.05;100986.44;5052397;28;20032;-45
2022/11/03 04:00:38;;;;;;;7.30;1.80;;;;;;;18.85;56.85;100982.09;5049330;28;20032;-46
2022/11/03 04:03:04;;;;;;;8.60;2.20;;;;;;;18.87;56.83;100974.16;5047621;28;20037;-47
2022/11/03 04:05:30;;;;;;;4.07;1.80;;;;;;;18.85;57.18;100975.97;5047747;28;20295;-47
2022/11/03 04:07:57;;;;;;;5.82;1.55;;;;;;;18.84;57.21;100969.03;5048055;28;20040;-45
2022/11/03 04:10:23;;;;;;;2.47;1.42;;;;;;;18.84;57.47;100967.22;5045084;28;20807;-46
2022/11/03 04:23:55;;;;;;;6.28;2.42;;;;;;;18.85;57.32;100960.19;5050577;28;20687;-45
2022/11/03 04:26:23;;;;;;;5.93;1.67;;;;;;;18.84;57.10;100964.59;5051210;28;20059;-46
2022/11/03 04:28:51;;;;;;;2.90;1.38;;;;;;;18.85;56.98;100947.88;5048656;28;20052;-46
2022/11/03 04:31:18;;;;;;;3.22;1.67;;;;;;;18.85;57.29;100936.50;5049351;28;20052;-46
2022/11/03 04:33:43;;;;;;;4.43;1.60;;;;;;;18.83;57.57;100925.22;5046073;28;20097;-45
2022/11/03 04:36:23;;;;;;;3.83;1.40;;;;;;;18.83;57.44;100927.84;5049680;28;20071;-46
2022/11/03 04:38:50;;;;;;;4.63;1.40;;;;;;;18.83;57.29;100931.34;5044825;28;20037;-45
2022/11/03 04:41:19;;;;;;;7.63;1.95;;;;;;;18.84;57.06;100924.28;5048144;28;20040;-45
2022/11/03 04:43:45;;;;;;;3.67;1.55;;;;;;;18.82;57.13;100921.72;5045197;28;20036;-45
2022/11/03 04:46:15;;;;;;;3.63;1.40;;;;;;;18.82;57.58;100923.50;5044739;28;20021;-45
2022/11/03 04:48:41;;;;;;;4.15;1.55;;;;;;;18.83;56.93;100915.53;5050325;28;20036;-45
2022/11/03 04:51:17;;;;;;;3.53;1.67;;;;;;;18.83;57.12;100915.53;5048585;28;20059;-45
2022/11/03 04:53:49;;;;;;;4.65;1.63;;;;;;;18.83;56.91;100904.16;5047585;28;20036;-45
2022/11/03 04:56:19;;;;;;;2.92;1.58;;;;;;;18.83;56.75;100896.25;5052044;28;20103;-46
2022/11/03 04:58:47;;;;;;;6.03;1.95;;;;;;;18.83;57.00;100891.00;5044281;28;20056;-46
2022/11/03 05:01:14;;;;;;;4.15;1.65;;;;;;;18.81;57.28;100891.06;5048229;28;20100;-46
2022/11/03 05:03:42;;;;;;;4.18;1.55;;;;;;;18.81;57.37;100884.97;5047692;28;20464;-46
2022/11/03 05:06:16;;;;;;;6.13;1.80;;;;;;;18.82;57.10;100881.38;5048626;28;20036;-45
2022/11/03 05:08:44;;;;;;;;;;;;;;;18.80;56.83;100870.09;5046339;28;20040;-46
2022/11/03 05:11:27;;;;;;;5.43;1.85;;;;;;;18.82;56.85;100868.22;5045003;28;19959;-46
2022/11/03 05:13:53;;;;;;;6.25;1.60;;;;;;;18.81;56.65;100867.38;5052148;28;20045;-46
2022/11/03 05:16:18;;;;;;;4.55;1.58;;;;;;;18.80;56.95;100873.59;5048643;28;20093;-47
2022/11/03 05:18:47;;;;;;;3.17;1.30;;;;;;;18.80;57.42;100863.06;5042134;28;20105;-46
2022/11/03 05:21:16;;;;;;;5.57;1.63;;;;;;;18.81;56.69;100862.09;5045645;28;20524;-46
2022/11/03 05:23:49;;;;;;;6.57;1.77;;;;;;;18.81;57.13;100858.66;5049415;28;20564;-46
2022/11/03 05:26:28;;;;;;;5.45;1.65;;;;;;;18.80;56.76;100855.16;5044481;28;20051;-46
2022/11/03 05:29:03;;;;;;;4.80;1.65;;;;;;;18.81;57.07;100856.03;5049999;28;20041;-47
2022/11/03 05:31:31;;;;;;;4.53;1.50;;;;;;;18.80;56.74;100849.91;5047865;28;20040;-45
2022/11/03 05:34:01;;;;;;;6.20;1.83;;;;;;;18.79;57.08;100849.97;5044504;28;20140;-46
2022/11/03 05:36:30;;;;;;;4.88;1.52;;;;;;;18.80;56.52;100846.41;5044944;28;20730;-46
2022/11/03 05:39:24;;;;;;;4.75;1.98;;;;;;;18.80;56.69;100854.31;5048832;28;20778;-46
2022/11/03 05:41:49;;;;;;;3.53;1.50;;;;;;;18.78;56.46;100846.47;5047899;28;20083;-46
2022/11/03 05:44:23;;;;;;;4.68;1.75;;;;;;;18.83;56.80;100848.88;5047152;28;20044;-46
2022/11/03 05:46:49;;;;;;;4.28;1.52;;;;;;;18.83;56.53;100846.25;5047427;28;20045;-46
2022/11/03 05:49:14;;;;;;;3.75;1.70;;;;;;;18.87;56.71;100838.09;5048786;28;20436;-45
2022/11/03 05:51:43;;;;;;;4.05;1.63;;;;;;;18.88;56.50;100837.16;5045110;28;20044;-49
2022/11/03 05:54:19;;;;;;;4.28;1.55;;;;;;;18.89;56.31;100830.97;5047402;28;20206;-46
2022/11/03 05:56:44;;;;;;;5.55;1.65;;;;;;;18.94;56.55;100815.78;5046466;28;20089;-47
2022/11/03 05:59:12;;;;;;;4.60;1.55;;;;;;;18.93;56.50;100818.47;5048682;28;20041;-46
2022/11/03 06:01:38;;;;;;;4.30;1.70;;;;;;;18.96;56.61;100819.16;5045517;28;20052;-45
2022/11/03 06:04:42;;;;;;;5.55;1.60;;;;;;;18.97;56.43;100814.75;5047456;28;20033;-47
2022/11/03 06:07:23;;;;;;;4.60;1.75;;;;;;;18.95;56.15;100817.50;5024745;28;20045;-45
2022/11/03 06:09:50;;;;;;;7.35;1.73;;;;;;;18.96;56.47;100808.63;5024254;28;20095;-47
2022/11/03 06:12:18;;;;;;;2.90;1.30;;;;;;;18.96;56.44;100808.63;5040996;28;20083;-44
2022/11/03 06:14:43;;;;;;;4.20;1.70;;;;;;;18.97;56.39;100805.06;5042660;28;20036;-46
2022/11/03 06:17:29;;;;;;;3.55;1.60;;;;;;;18.97;56.40;100799.81;5048457;28;20067;-46
2022/11/03 06:19:57;;;;;;;4.90;1.42;;;;;;;18.98;56.56;100800.66;5050258;28;20032;-45
2022/11/03 06:22:34;;;;;;;6.25;1.88;;;;;;;18.99;56.33;100812.88;5052477;28;20051;-46
2022/11/03 06:25:25;;;;;;;5.88;1.33;;;;;;;19.03;56.29;100820.53;5051703;28;20028;-45
2022/11/03 06:27:52;;;;;;;5.20;1.70;;;;;;;19.08;56.21;100817.63;5053196;28;20040;-45
2022/11/03 06:30:24;;;;;;;4.05;1.50;;;;;;;19.15;56.13;100814.59;5046798;28;20581;-45
2022/11/03 06:32:50;;;;;;;5.25;1.55;;;;;;;19.38;56.40;100815.09;5050373;28;20051;-45
2022/11/03 06:35:17;;;;;;;4.60;1.77;;;;;;;19.40;56.14;100808.81;5051763;28;20036;-45
2022/11/03 06:37:43;;;;;;;2.60;1.15;;;;;;;19.45;55.83;100798.88;5050398;28;20036;-44
2022/11/03 06:40:08;;;;;;;3.30;1.45;;;;;;;19.48;55.75;100797.84;5046594;28;20021;-45
2022/11/03 06:42:34;;;;;;;4.65;1.15;;;;;;;19.51;55.58;100792.41;5046214;28;20031;-48
2022/11/03 06:45:09;;;;;;;4.70;1.45;;;;;;;19.51;55.64;100790.63;5050185;28;20745;-45
2022/11/03 06:47:34;;;;;;;4.13;1.50;;;;;;;19.52;55.49;100773.03;5054416;28;20052;-45
2022/11/03 06:50:00;;;;;;;4.88;1.50;;;;;;;19.52;55.57;100749.31;5057741;28;20732;-44
2022/11/03 06:52:36;;;;;;;3.33;1.40;;;;;;;19.50;55.43;100738.84;5051466;28;20085;-46
2022/11/03 06:55:10;;;;;;;2.92;1.05;;;;;;;19.48;55.68;100731.97;5058746;28;20039;-46
2022/11/03 06:57:43;;;;;;;3.38;1.90;;;;;;;19.47;55.60;100728.50;5051092;28;20138;-45
2022/11/03 07:00:28;;;;;;;2.80;1.63;;;;;;;19.48;55.79;100730.19;5047199;28;20032;-45
2022/11/03 07:03:04;;;;;;;6.18;1.95;;;;;;;19.49;55.69;100717.88;5049140;28;20114;-45
2022/11/03 07:05:31;;;;;;;2.28;1.23;;;;;;;19.47;55.78;100719.75;5046247;28;20033;-45
2022/11/03 07:08:30;;;;;;;3.13;1.20;;;;;;;19.48;55.89;100718.81;5049280;28;20145;-45
2022/11/03 07:11:10;;;;;;;6.45;1.45;;;;;;;19.55;55.71;100720.16;5046301;28;20071;-47
2022/11/03 07:13:36;;;;;;;5.40;1.60;;;;;;;19.59;56.12;100721.66;5056581;28;20099;-50
2022/11/03 07:16:01;;;;;;;3.67;1.30;;;;;;;19.60;56.40;100723.38;5041976;28;20075;-49
2022/11/03 07:18:34;;;;;;;5.68;1.63;;;;;;;19.76;56.19;100729.41;5052241;28;20020;-49
2022/11/03 07:21:06;;;;;;;4.97;1.33;;;;;;;19.83;56.46;100725.47;5051115;28;20094;-47
2022/11/03 07:23:31;;;;;;;5.00;1.42;;;;;;;19.70;56.30;100721.88;5045793;28;20037;-47
2022/11/03 07:26:00;;;;;;;3.45;1.58;;;;;;;19.74;56.44;100726.03;5046541;28;20731;-50
2022/11/03 07:28:34;;;;;;;5.45;1.20;;;;;;;19.89;56.33;100722.47;5050995;28;20048;-48
2022/11/03 07:31:01;;;;;;;2.33;1.10;;;;;;;19.86;56.08;100717.38;5063034;28;20032;-46
2022/11/03 07:33:30;;;;;;;3.22;1.17;;;;;;;19.83;56.78;100711.44;5046848;28;20543;-47
2022/11/03 07:35:57;;;;;;;5.47;1.70;;;;;;;19.89;57.07;100704.03;5048416;28;20102;-51
2022/11/03 07:38:24;;;;;;;4.82;1.20;;;;;;;19.82;56.53;100696.59;5047894;28;20078;-48
2022/11/03 07:40:51;;;;;;;5.65;1.40;;;;;;;19.88;56.27;100707.59;5045854;28;20532;-50
2022/11/03 07:43:21;;;;;;;4.10;1.92;;;;;;;19.84;56.32;100707.88;5046059;28;20041;-47
2022/11/03 07:45:55;;;;;;;4.70;1.60;;;;;;;19.87;56.79;100708.53;5045507;28;20028;-46
2022/11/03 07:48:20;;;;;;;5.07;1.25;;;;;;;19.88;56.95;100701.50;5045471;28;20068;-47
2022/11/03 07:50:48;;;;;;;7.25;1.08;;;;;;;19.85;56.10;100701.69;5047746;28;20127;-47
2022/11/03 07:53:41;;;;;;;6.20;1.27;;;;;;;19.86;56.10;100692.81;5050044;28;20128;-49
2022/11/03 07:56:18;;;;;;;3.38;1.08;;;;;;;19.97;56.46;100693.84;5042915;28;20033;-52
2022/11/03 07:58:44;;;;;;;3.78;1.50;;;;;;;19.96;56.48;100684.25;5044811;28;20029;-48
2022/11/03 08:01:30;;;;;;;4.97;1.30;;;;;;;19.96;55.97;100681.63;5043222;28;20065;-49
2022/11/03 08:04:00;;;;;;;5.35;1.35;;;;;;;20.01;55.68;100682.19;5050789;28;20032;-46
2022/11/03 08:06:26;;;;;;;2.97;1.30;;;;;;;20.08;57.05;100685.31;5046454;28;20418;-48
2022/11/03 08:08:51;;;;;;;5.13;1.20;;;;;;;19.97;58.06;100685.94;5047900;28;20054;-47
2022/11/03 08:11:17;;;;;;;4.07;1.20;;;;;;;20.14;57.51;100683.16;5046740;28;20072;-47
2022/11/03 08:13:42;;;;;;;3.50;1.30;;;;;;;20.09;55.99;100690.50;5050350;28;20062;-46
2022/11/03 08:16:08;;;;;;;3.53;1.40;;;;;;;20.04;56.63;100687.28;5050833;28;21308;-47
2022/11/03 08:18:35;;;;;;;3.10;1.20;;;;;;;20.10;56.71;100693.97;5041704;28;20663;-46
2022/11/03 08:21:01;;;;;;;3.03;1.20;;;;;;;20.08;57.22;100685.31;5051248;28;20044;-47
2022/11/03 08:23:26;;;;;;;3.95;1.25;;;;;;;19.97;55.75;100685.94;5050611;28;20064;-44
2022/11/03 08:25:51;;;;;;;2.88;1.10;;;;;;;19.84;55.96;100685.00;5045743;28;20091;-44
2022/11/03 08:28:17;;;;;;;2.70;0.98;;;;;;;19.95;57.41;100685.19;5051931;28;20091;-45
2022/11/03 08:30:42;;;;;;;2.88;1.30;;;;;;;19.98;56.04;100685.00;5043905;28;20033;-45
2022/11/03 08:33:08;;;;;;;3.67;1.27;;;;;;;19.98;56.50;100684.16;5053027;28;20033;-45
2022/11/03 08:35:33;;;;;;;2.55;1.10;;;;;;;20.00;57.37;100684.91;5043074;28;20135;-48
2022/11/03 08:37:58;;;;;;;4.22;1.67;;;;;;;19.81;55.99;100679.91;5046713;28;20045;-47
2022/11/03 08:40:24;;;;;;;5.65;1.15;;;;;;;19.70;55.84;100669.16;5049421;28;20097;-46
2022/11/03 08:42:49;;;;;;;4.25;1.40;;;;;;;19.85;56.10;100662.13;5048706;28;20044;-47
2022/11/03 08:45:15;;;;;;;2.47;1.25;;;;;;;20.08;58.36;100656.31;5053327;28;20479;-49
2022/11/03 08:47:40;;;;;;;3.70;1.30;;;;;;;20.05;58.21;100648.56;5054477;28;20582;-48
2022/11/03 08:50:06;;;;;;;3.38;1.08;;;;;;;20.03;56.18;100645.16;5050244;28;21023;-49
2022/11/03 08:52:32;;;;;;;3.83;1.33;;;;;;;20.02;58.22;100641.69;5044023;28;20048;-47
2022/11/03 08:54:57;;;;;;;3.53;0.98;;;;;;;19.87;56.65;100634.72;5048022;28;20490;-48
2022/11/03 08:57:22;;;;;;;3.55;1.33;;;;;;;19.85;56.51;100628.69;5063438;28;21084;-48
2022/11/03 08:59:48;;;;;;;1.45;0.88;;;;;;;19.72;56.07;100636.53;5044668;28;20051;-46
2022/11/03 09:02:13;;;;;;;3.00;1.17;;;;;;;19.76;56.08;100635.38;5048323;28;20036;-47
2022/11/03 09:04:38;;;;;;;4.03;1.10;;;;;;;19.84;57.12;100628.78;5051190;28;20033;-50
2022/11/03 09:07:04;;;;;;;2.75;1.25;;;;;;;19.89;57.31;100622.28;5048640;28;20028;-48
2022/11/03 09:09:29;;;;;;;2.92;0.90;;;;;;;19.90;58.42;100629.28;5040766;28;20143;-47
2022/11/03 09:11:55;;;;;;;2.80;1.05;;;;;;;19.81;57.80;100624.56;5048918;28;20557;-53
2022/11/03 09:14:20;;;;;;;2.58;1.08;;;;;;;19.79;58.46;100619.38;5042848;28;20450;-51
2022/11/03 09:16:45;;;;;;;3.05;1.00;;;;;;;19.63;56.59;100617.78;5054304;28;20029;-51
2022/11/03 09:19:11;;;;;;;4.55;1.20;;;;;;;19.68;57.54;100607.78;5045927;28;20067;-47
2022/11/03 09:21:36;;;;;;;2.40;1.10;;;;;;;19.77;58.41;100613.34;5045445;28;20021;-46
2022/11/03 09:24:01;;;;;;;4.25;1.02;;;;;;;19.83;58.03;100600.72;5048499;28;20670;-50
2022/11/03 09:26:27;;;;;;;2.38;1.10;;;;;;;19.82;57.68;100596.41;5044688;28;20757;-49
2022/11/03 09:28:52;;;;;;;2.28;1.10;;;;;;;19.87;58.26;100592.56;5047624;28;20044;-49
2022/11/03 09:31:18;;;;;;;4.45;1.45;;;;;;;19.71;56.17;100586.53;5044304;28;20033;-50
2022/11/03 09:33:44;;;;;;;3.20;1.45;;;;;;;19.66;56.67;100564.88;5047091;28;20098;-47
2022/11/03 09:36:09;;;;;;;2.22;1.08;;;;;;;19.66;56.42;100535.91;5048011;28;20044;-47
2022/11/03 09:38:35;;;;;;;4.18;1.10;;;;;;;19.70;57.59;100553.19;5048370;28;20164;-49
2022/11/03 09:41:02;;;;;;;1.65;0.82;;;;;;;19.73;56.44;100540.69;5044654;28;20213;-48
2022/11/03 09:43:28;;;;;;;3.47;1.50;;;;;;;19.64;58.55;100545.69;5048864;28;20087;-49
2022/11/03 09:45:53;;;;;;;2.05;1.20;;;;;;;19.62;56.71;100544.91;5040764;28;20163;-49
2022/11/03 09:48:19;;;;;;;3.10;1.40;;;;;;;19.60;58.42;100545.03;5044698;28;20036;-48
2022/11/03 09:50:49;;;;;;;2.47;1.00;;;;;;;19.60;56.71;100536.28;5043761;28;20056;-48
2022/11/03 09:53:14;;;;;;;2.50;0.98;;;;;;;19.57;56.64;100523.28;5050486;28;20059;-52
2022/11/03 09:55:40;;;;;;;4.05;1.27;;;;;;;19.61;57.28;100501.09;5047509;28;20033;-51
2022/11/03 09:58:23;;;;;;;4.38;1.33;;;;;;;19.57;56.58;100492.53;5047607;28;20685;-46
2022/11/03 10:00:48;;;;;;;1.70;0.95;;;;;;;19.54;58.53;100483.97;5046161;28;20133;-46
2022/11/03 10:03:16;;;;;;;4.97;1.15;;;;;;;19.48;56.74;100471.16;5047846;28;20033;-47
2022/11/03 10:05:44;;;;;;;1.88;1.02;;;;;;;19.46;56.76;100457.25;5046440;28;20245;-47
2022/11/03 10:08:24;;;;;;;3.50;1.20;;;;;;;19.45;56.99;100466.94;5044500;28;20732;-47
2022/11/03 10:10:50;;;;;;;3.67;1.00;;;;;;;19.46;56.80;100459.88;5047217;28;20788;-47
2022/11/03 10:13:33;;;;;;;1.88;1.13;;;;;;;19.50;57.52;100464.00;5045403;28;20041;-48
2022/11/03 10:16:04;;;;;;;2.40;1.10;;;;;;;19.57;58.43;100466.19;5043971;28;20136;-47
2022/11/03 10:18:30;;;;;;;2.63;1.10;;;;;;;19.51;57.37;100466.56;5045039;28;20031;-48
2022/11/03 10:20:59;;;;;;;2.47;1.25;;;;;;;19.46;57.17;100468.59;5043686;28;20108;-47
2022/11/03 10:23:24;;;;;;;3.05;1.20;;;;;;;19.45;57.09;100458.19;5046737;28;20078;-48
2022/11/03 10:25:50;;;;;;;3.67;1.20;;;;;;;19.41;57.07;100461.94;5043797;28;20049;-51
2022/11/03 10:28:27;;;;;;;4.03;0.90;;;;;;;19.49;56.84;100457.06;5065359;28;20048;-50
2022/11/03 10:31:05;;;;;;;2.13;1.20;;;;;;;19.47;57.05;100449.25;5048743;28;20075;-49
2022/11/03 10:33:52;;;;;;;1.70;0.70;;;;;;;19.41;56.97;100446.97;5044309;28;20029;-52
2022/11/03 10:36:17;;;;;;;1.55;0.85;;;;;;;19.49;59.19;100439.44;5044825;28;20157;-51
2022/11/03 10:38:43;;;;;;;1.90;1.00;;;;;;;19.39;57.06;100417.28;5052178;28;20032;-51
2022/11/03 10:41:13;;;;;;;2.50;1.27;;;;;;;19.35;57.11;100412.28;5046515;28;20072;-51
2022/11/03 10:43:43;;;;;;;3.67;1.08;;;;;;;19.28;57.03;100397.78;5048627;28;20142;-50
2022/11/03 10:46:18;;;;;;;2.00;0.82;;;;;;;19.28;57.10;100396.03;5045596;28;20033;-49
2022/11/03 10:48:44;;;;;;;2.65;1.00;;;;;;;19.25;57.21;100398.81;5045613;28;20056;-52
2022/11/03 10:51:13;;;;;;;2.45;1.08;;;;;;;19.25;57.25;100394.38;5044003;28;20768;-52
2022/11/03 10:53:42;;;;;;;2.40;1.00;;;;;;;19.26;57.37;100400.50;5048499;28;20066;-49
2022/11/03 10:56:09;;;;;;;3.08;1.10;;;;;;;19.26;57.28;100388.19;5046912;28;20315;-49
2022/11/03 10:58:36;;;;;;;2.20;1.10;;;;;;;19.25;57.63;100372.50;5043611;28;20966;-48
2022/11/03 11:01:02;;;;;;;4.20;1.30;;;;;;;19.24;57.59;100361.09;5047296;28;20032;-49
2022/11/03 11:03:27;;;;;;;3.40;1.02;;;;;;;19.25;57.50;100354.88;5049136;28;20690;-45
2022/11/03 11:05:53;;;;;;;2.60;0.90;;;;;;;19.24;57.58;100345.31;5062931;28;20044;-43
2022/11/03 11:08:22;;;;;;;2.20;0.85;;;;;;;19.23;57.58;100335.72;5052318;28;20037;-46
2022/11/03 11:10:48;;;;;;;2.75;1.25;;;;;;;19.24;57.42;100345.31;5051071;28;20083;-44
2022/11/03 11:13:22;;;;;;;2.58;1.20;;;;;;;19.24;57.72;100355.84;5050503;28;20057;-47
2022/11/03 11:15:54;;;;;;;2.90;1.20;;;;;;;19.26;57.94;100364.47;5053687;28;20043;-46
2022/11/03 11:18:29;;;;;;;4.80;1.20;;;;;;;19.23;57.67;100371.72;5046995;28;20067;-44
2022/11/03 11:20:58;;;;;;;3.25;1.20;;;;;;;19.31;58.31;100385.31;5048098;28;20036;-44
2022/11/03 11:23:26;;;;;;;4.32;1.42;;;;;;;19.24;56.92;100371.66;5051181;28;20032;-45
2022/11/03 11:26:23;;;;;;;9.55;1.35;;;;;;;19.22;57.13;100344.53;5053038;28;20097;-45
2022/11/03 11:29:10;;;;;;;14.32;2.03;;;;;;;19.32;57.56;100341.34;5049351;28;20057;-44
2022/11/03 11:31:43;;;;;;;12.95;1.98;;;;;;;19.19;56.80;100341.28;5052035;28;20068;-45
2022/11/03 11:34:08;;;;;;;5.85;1.65;;;;;;;19.16;56.67;100330.94;5051116;28;20028;-45
2022/11/03 11:36:41;;;;;;;7.70;1.67;;;;;;;19.15;56.58;100329.25;5050519;28;20040;-43
2022/11/03 11:39:21;;;;;;;10.23;1.85;;;;;;;19.13;56.77;100317.97;5048613;28;20591;-44
2022/11/03 11:42:09;;;;;;;8.77;1.48;;;;;;;19.09;56.66;100293.63;5048854;28;20401;-44
2022/11/03 11:44:53;;;;;;;8.45;1.42;;;;;;;19.09;56.67;100306.78;5047373;28;20040;-44
2022/11/03 11:47:21;;;;;;;5.13;1.20;;;;;;;19.13;56.77;100302.16;5046035;28;20110;-45
2022/11/03 11:49:47;;;;;;;8.10;1.52;;;;;;;19.11;56.78;100283.81;5050698;28;20687;-42
2022/11/03 11:52:13;;;;;;;9.38;2.25;;;;;;;19.13;56.77;100278.47;5044490;28;20044;-45
2022/11/03 11:54:41;;;;;;;7.25;1.45;;;;;;;19.10;56.91;100284.78;5048063;28;20024;-41
2022/11/03 11:57:19;;;;;;;6.25;1.65;;;;;;;19.09;56.66;100275.19;5050571;28;20521;-42